sensor_id;sensor_type;location;lat;lon;timestamp;temperature;humidity
52275;DHT22;38228;50.940;4.024;2023-01-23T00:00:09;3.10;99.90
52275;DHT22;38228;50.940;4.024;2023-01-23T00:02:35;3.10;99.90
52275;DHT22;38228;50.940;4.024;2023-01-23T00:05:01;3.10;99.90
52275;DHT22;38228;50.940;4.024;2023-01-23T00:07:26;3.00;99.90
52275;DHT22;38228;50.940;4.024;2023-01-23T00:09:52;3.10;99.90
52275;DHT22;38228;50.940;4.024;2023-01-23T00:12:18;3.00;99.90
52275;DHT22;38228;50.940;4.024;2023-01-23T00:14:43;3.00;99.90
52275;DHT22;38228;50.940;4.024;2023-01-23T00:17:09;3.00;99.90
52275;DHT22;38228;50.940;4.024;2023-01-23T00:19:34;3.00;99.90
52275;DHT22;38228;50.940;4.024;2023-01-23T00:22:00;3.10;99.90
52275;DHT22;38228;50.940;4.024;2023-01-23T00:24:26;3.00;99.90
52275;DHT22;38228;50.940;4.024;2023-01-23T00:26:51;3.00;99.90
52275;DHT22;38228;50.940;4.024;2023-01-23T00:29:17;3.00;99.90
52275;DHT22;38228;50.940;4.024;2023-01-23T00:31:43;3.10;99.90
52275;DHT22;38228;50.940;4.024;2023-01-23T00:34:12;3.00;99.90
52275;DHT22;38228;50.940;4.024;2023-01-23T00:36:39;3.00;99.90
52275;DHT22;38228;50.940;4.024;2023-01-23T00:39:08;2.90;99.90
52275;DHT22;38228;50.940;4.024;2023-01-23T00:41:35;3.00;99.90
52275;DHT22;38228;50.940;4.024;2023-01-23T00:44:00;3.00;99.90
52275;DHT22;38228;50.940;4.024;2023-01-23T00:46:30;3.00;99.90
52275;DHT22;38228;50.940;4.024;2023-01-23T00:49:06;3.10;99.90
52275;DHT22;38228;50.940;4.024;2023-01-23T00:51:36;3.10;99.90
52275;DHT22;38228;50.940;4.024;2023-01-23T00:54:12;3.00;99.90
52275;DHT22;38228;50.940;4.024;2023-01-23T00:56:37;3.10;99.90
52275;DHT22;38228;50.940;4.024;2023-01-23T00:59:03;3.10;99.90
52275;DHT22;38228;50.940;4.024;2023-01-23T01:01:31;3.10;99.90
52275;DHT22;38228;50.940;4.024;2023-01-23T01:03:58;3.00;99.90
52275;DHT22;38228;50.940;4.024;2023-01-23T01:06:24;3.10;99.90
52275;DHT22;38228;50.940;4.024;2023-01-23T01:08:49;3.20;99.90
52275;DHT22;38228;50.940;4.024;2023-01-23T01:11:15;3.20;99.90
52275;DHT22;38228;50.940;4.024;2023-01-23T01:13:41;3.20;99.90
52275;DHT22;38228;50.940;4.024;2023-01-23T01:16:07;3.20;99.90
52275;DHT22;38228;50.940;4.024;2023-01-23T01:18:33;3.10;99.90
52275;DHT22;38228;50.940;4.024;2023-01-23T01:20:59;3.00;99.90
52275;DHT22;38228;50.940;4.024;2023-01-23T01:23:24;3.20;99.90
52275;DHT22;38228;50.940;4.024;2023-01-23T01:25:50;3.10;99.90
52275;DHT22;38228;50.940;4.024;2023-01-23T01:28:15;3.10;99.90
52275;DHT22;38228;50.940;4.024;2023-01-23T01:30:41;3.20;99.90
52275;DHT22;38228;50.940;4.024;2023-01-23T01:33:07;3.20;99.90
52275;DHT22;38228;50.940;4.024;2023-01-23T01:35:32;3.20;99.90
52275;DHT22;38228;50.940;4.024;2023-01-23T01:37:58;3.20;99.90
52275;DHT22;38228;50.940;4.024;2023-01-23T01:40:25;3.10;99.90
52275;DHT22;38228;50.940;4.024;2023-01-23T01:42:53;3.10;99.90
52275;DHT22;38228;50.940;4.024;2023-01-23T01:48:04;3.10;99.90
52275;DHT22;38228;50.940;4.024;2023-01-23T01:50:29;3.30;99.90
52275;DHT22;38228;50.940;4.024;2023-01-23T01:52:55;3.30;99.90
52275;DHT22;38228;50.940;4.024;2023-01-23T01:55:20;3.20;99.90
52275;DHT22;38228;50.940;4.024;2023-01-23T01:57:46;3.30;99.90
52275;DHT22;38228;50.940;4.024;2023-01-23T02:00:14;3.30;99.90
52275;DHT22;38228;50.940;4.024;2023-01-23T02:05:10;3.20;99.90
52275;DHT22;38228;50.940;4.024;2023-01-23T02:07:38;3.20;99.90
52275;DHT22;38228;50.940;4.024;2023-01-23T02:10:05;3.30;99.90
52275;DHT22;38228;50.940;4.024;2023-01-23T02:12:31;3.20;99.90
52275;DHT22;38228;50.940;4.024;2023-01-23T02:14:59;3.30;99.90
52275;DHT22;38228;50.940;4.024;2023-01-23T02:17:25;3.40;99.90
52275;DHT22;38228;50.940;4.024;2023-01-23T02:22:20;3.30;99.90
52275;DHT22;38228;50.940;4.024;2023-01-23T02:27:28;3.30;99.90
52275;DHT22;38228;50.940;4.024;2023-01-23T02:29:54;3.40;99.90
52275;DHT22;38228;50.940;4.024;2023-01-23T02:32:21;3.30;99.90
52275;DHT22;38228;50.940;4.024;2023-01-23T02:34:49;3.30;99.90
52275;DHT22;38228;50.940;4.024;2023-01-23T02:37:15;3.30;99.90
52275;DHT22;38228;50.940;4.024;2023-01-23T02:39:41;3.30;99.90
52275;DHT22;38228;50.940;4.024;2023-01-23T02:42:07;3.40;99.90
52275;DHT22;38228;50.940;4.024;2023-01-23T02:44:33;3.30;99.90
52275;DHT22;38228;50.940;4.024;2023-01-23T02:47:00;3.30;99.90
52275;DHT22;38228;50.940;4.024;2023-01-23T02:49:26;3.30;99.90
52275;DHT22;38228;50.940;4.024;2023-01-23T02:51:53;3.40;99.90
52275;DHT22;38228;50.940;4.024;2023-01-23T02:54:19;3.30;99.90
52275;DHT22;38228;50.940;4.024;2023-01-23T02:56:44;3.30;99.90
52275;DHT22;38228;50.940;4.024;2023-01-23T02:59:10;3.20;99.90
52275;DHT22;38228;50.940;4.024;2023-01-23T03:01:54;3.10;99.90
52275;DHT22;38228;50.940;4.024;2023-01-23T03:04:20;3.00;99.90
52275;DHT22;38228;50.940;4.024;2023-01-23T03:06:46;3.10;99.90
52275;DHT22;38228;50.940;4.024;2023-01-23T03:09:12;3.20;99.90
52275;DHT22;38228;50.940;4.024;2023-01-23T03:11:39;3.20;99.90
52275;DHT22;38228;50.940;4.024;2023-01-23T03:14:09;3.30;99.90
52275;DHT22;38228;50.940;4.024;2023-01-23T03:16:35;3.40;99.90
52275;DHT22;38228;50.940;4.024;2023-01-23T03:19:01;3.40;99.90
52275;DHT22;38228;50.940;4.024;2023-01-23T03:21:33;3.40;99.90
52275;DHT22;38228;50.940;4.024;2023-01-23T03:23:59;3.30;99.90
52275;DHT22;38228;50.940;4.024;2023-01-23T03:26:24;3.40;99.90
52275;DHT22;38228;50.940;4.024;2023-01-23T03:28:50;3.40;99.90
52275;DHT22;38228;50.940;4.024;2023-01-23T03:31:34;3.30;99.90
52275;DHT22;38228;50.940;4.024;2023-01-23T03:34:00;3.30;99.90
52275;DHT22;38228;50.940;4.024;2023-01-23T03:36:25;3.20;99.90
52275;DHT22;38228;50.940;4.024;2023-01-23T03:38:51;3.10;99.90
52275;DHT22;38228;50.940;4.024;2023-01-23T03:41:43;3.10;99.90
52275;DHT22;38228;50.940;4.024;2023-01-23T03:44:10;3.00;99.90
52275;DHT22;38228;50.940;4.024;2023-01-23T03:46:35;3.10;99.90
52275;DHT22;38228;50.940;4.024;2023-01-23T03:49:01;3.10;99.90
52275;DHT22;38228;50.940;4.024;2023-01-23T03:51:27;3.10;99.90
52275;DHT22;38228;50.940;4.024;2023-01-23T03:53:52;3.00;99.90
52275;DHT22;38228;50.940;4.024;2023-01-23T03:56:18;3.10;99.90
52275;DHT22;38228;50.940;4.024;2023-01-23T03:58:44;3.10;99.90
52275;DHT22;38228;50.940;4.024;2023-01-23T04:01:11;3.10;99.90
52275;DHT22;38228;50.940;4.024;2023-01-23T04:03:38;3.10;99.90
52275;DHT22;38228;50.940;4.024;2023-01-23T04:06:05;3.00;99.90
52275;DHT22;38228;50.940;4.024;2023-01-23T04:08:34;3.00;99.90
52275;DHT22;38228;50.940;4.024;2023-01-23T04:11:05;3.10;99.90
52275;DHT22;38228;50.940;4.024;2023-01-23T04:13:42;3.10;99.90
52275;DHT22;38228;50.940;4.024;2023-01-23T04:16:21;3.10;99.90
52275;DHT22;38228;50.940;4.024;2023-01-23T04:18:49;3.00;99.90
52275;DHT22;38228;50.940;4.024;2023-01-23T04:21:18;3.20;99.90
52275;DHT22;38228;50.940;4.024;2023-01-23T04:23:54;3.20;99.90
52275;DHT22;38228;50.940;4.024;2023-01-23T04:26:21;3.20;99.90
52275;DHT22;38228;50.940;4.024;2023-01-23T04:28:47;3.20;99.90
52275;DHT22;38228;50.940;4.024;2023-01-23T04:31:12;3.20;99.90
52275;DHT22;38228;50.940;4.024;2023-01-23T04:33:42;3.10;99.90
52275;DHT22;38228;50.940;4.024;2023-01-23T04:36:07;3.10;99.90
52275;DHT22;38228;50.940;4.024;2023-01-23T04:38:33;3.10;99.90
52275;DHT22;38228;50.940;4.024;2023-01-23T04:40:58;3.10;99.90
52275;DHT22;38228;50.940;4.024;2023-01-23T04:43:24;3.20;99.90
52275;DHT22;38228;50.940;4.024;2023-01-23T04:45:51;3.20;99.90
52275;DHT22;38228;50.940;4.024;2023-01-23T04:48:17;3.30;99.90
52275;DHT22;38228;50.940;4.024;2023-01-23T04:50:42;3.30;99.90
52275;DHT22;38228;50.940;4.024;2023-01-23T04:53:11;3.40;99.90
52275;DHT22;38228;50.940;4.024;2023-01-23T04:55:38;3.30;99.90
52275;DHT22;38228;50.940;4.024;2023-01-23T04:58:03;3.50;99.90
52275;DHT22;38228;50.940;4.024;2023-01-23T05:00:29;3.50;99.90
52275;DHT22;38228;50.940;4.024;2023-01-23T05:02:55;3.60;99.90
52275;DHT22;38228;50.940;4.024;2023-01-23T05:05:20;3.60;99.90
52275;DHT22;38228;50.940;4.024;2023-01-23T05:07:46;3.60;99.90
52275;DHT22;38228;50.940;4.024;2023-01-23T05:10:12;3.60;99.90
52275;DHT22;38228;50.940;4.024;2023-01-23T05:12:38;3.70;99.90
52275;DHT22;38228;50.940;4.024;2023-01-23T05:15:04;3.70;99.90
52275;DHT22;38228;50.940;4.024;2023-01-23T05:17:29;3.70;99.90
52275;DHT22;38228;50.940;4.024;2023-01-23T05:19:55;3.70;99.90
52275;DHT22;38228;50.940;4.024;2023-01-23T05:22:21;3.70;99.90
52275;DHT22;38228;50.940;4.024;2023-01-23T05:24:47;3.70;99.90
52275;DHT22;38228;50.940;4.024;2023-01-23T05:27:12;3.70;99.90
52275;DHT22;38228;50.940;4.024;2023-01-23T05:29:38;3.60;99.90
52275;DHT22;38228;50.940;4.024;2023-01-23T05:32:04;3.60;99.90
52275;DHT22;38228;50.940;4.024;2023-01-23T05:34:29;3.70;99.90
52275;DHT22;38228;50.940;4.024;2023-01-23T05:36:55;3.60;99.90
52275;DHT22;38228;50.940;4.024;2023-01-23T05:39:20;3.70;99.90
52275;DHT22;38228;50.940;4.024;2023-01-23T05:41:46;3.80;99.90
52275;DHT22;38228;50.940;4.024;2023-01-23T05:44:12;3.70;99.90
52275;DHT22;38228;50.940;4.024;2023-01-23T05:46:37;3.60;99.90
52275;DHT22;38228;50.940;4.024;2023-01-23T05:49:03;3.70;99.90
52275;DHT22;38228;50.940;4.024;2023-01-23T05:51:28;3.60;99.90
52275;DHT22;38228;50.940;4.024;2023-01-23T05:53:58;3.50;99.90
52275;DHT22;38228;50.940;4.024;2023-01-23T05:56:24;3.50;99.90
52275;DHT22;38228;50.940;4.024;2023-01-23T05:58:49;3.40;99.90
52275;DHT22;38228;50.940;4.024;2023-01-23T06:01:15;3.50;99.90
52275;DHT22;38228;50.940;4.024;2023-01-23T06:03:41;3.50;99.90
52275;DHT22;38228;50.940;4.024;2023-01-23T06:06:07;3.30;99.90
52275;DHT22;38228;50.940;4.024;2023-01-23T06:08:32;3.30;99.90
52275;DHT22;38228;50.940;4.024;2023-01-23T06:10:58;3.40;99.90
52275;DHT22;38228;50.940;4.024;2023-01-23T06:13:27;3.50;99.90
52275;DHT22;38228;50.940;4.024;2023-01-23T06:15:53;3.50;99.90
52275;DHT22;38228;50.940;4.024;2023-01-23T06:18:18;3.50;99.90
52275;DHT22;38228;50.940;4.024;2023-01-23T06:20:44;3.50;99.90
52275;DHT22;38228;50.940;4.024;2023-01-23T06:23:10;3.50;99.90
52275;DHT22;38228;50.940;4.024;2023-01-23T06:25:41;3.60;99.90
52275;DHT22;38228;50.940;4.024;2023-01-23T06:28:07;3.50;99.90
52275;DHT22;38228;50.940;4.024;2023-01-23T06:30:33;3.50;99.90
52275;DHT22;38228;50.940;4.024;2023-01-23T06:32:58;3.50;99.90
52275;DHT22;38228;50.940;4.024;2023-01-23T06:35:24;3.40;99.90
52275;DHT22;38228;50.940;4.024;2023-01-23T06:37:50;3.30;99.90
52275;DHT22;38228;50.940;4.024;2023-01-23T06:40:22;3.30;99.90
52275;DHT22;38228;50.940;4.024;2023-01-23T06:42:55;3.20;99.90
52275;DHT22;38228;50.940;4.024;2023-01-23T06:45:24;3.40;99.90
52275;DHT22;38228;50.940;4.024;2023-01-23T06:47:53;3.40;99.90
52275;DHT22;38228;50.940;4.024;2023-01-23T06:50:28;3.30;99.90
52275;DHT22;38228;50.940;4.024;2023-01-23T06:52:53;3.30;99.90
52275;DHT22;38228;50.940;4.024;2023-01-23T06:55:19;3.30;99.90
52275;DHT22;38228;50.940;4.024;2023-01-23T06:57:45;3.40;99.90
52275;DHT22;38228;50.940;4.024;2023-01-23T07:00:11;3.40;99.90
52275;DHT22;38228;50.940;4.024;2023-01-23T07:02:37;3.50;99.90
52275;DHT22;38228;50.940;4.024;2023-01-23T07:05:03;3.60;99.90
52275;DHT22;38228;50.940;4.024;2023-01-23T07:07:28;3.60;99.90
52275;DHT22;38228;50.940;4.024;2023-01-23T07:09:54;3.50;99.90
52275;DHT22;38228;50.940;4.024;2023-01-23T07:12:20;3.50;99.90
52275;DHT22;38228;50.940;4.024;2023-01-23T07:14:45;3.50;99.90
52275;DHT22;38228;50.940;4.024;2023-01-23T07:17:11;3.60;99.90
52275;DHT22;38228;50.940;4.024;2023-01-23T07:19:36;3.80;99.90
52275;DHT22;38228;50.940;4.024;2023-01-23T07:22:02;3.70;99.90
52275;DHT22;38228;50.940;4.024;2023-01-23T07:24:27;3.80;99.90
52275;DHT22;38228;50.940;4.024;2023-01-23T07:26:55;3.70;99.90
52275;DHT22;38228;50.940;4.024;2023-01-23T07:29:21;3.60;99.90
52275;DHT22;38228;50.940;4.024;2023-01-23T07:31:47;3.60;99.90
52275;DHT22;38228;50.940;4.024;2023-01-23T07:34:12;3.60;99.90
52275;DHT22;38228;50.940;4.024;2023-01-23T07:36:38;3.50;99.90
52275;DHT22;38228;50.940;4.024;2023-01-23T07:39:03;3.50;99.90
52275;DHT22;38228;50.940;4.024;2023-01-23T07:41:29;3.60;99.90
52275;DHT22;38228;50.940;4.024;2023-01-23T07:43:54;3.50;99.90
52275;DHT22;38228;50.940;4.024;2023-01-23T07:46:20;3.60;99.90
52275;DHT22;38228;50.940;4.024;2023-01-23T07:48:47;3.80;99.90
52275;DHT22;38228;50.940;4.024;2023-01-23T07:51:16;3.80;99.90
52275;DHT22;38228;50.940;4.024;2023-01-23T07:53:42;3.70;99.90
52275;DHT22;38228;50.940;4.024;2023-01-23T07:56:07;3.70;99.90
52275;DHT22;38228;50.940;4.024;2023-01-23T07:58:33;3.70;99.90
52275;DHT22;38228;50.940;4.024;2023-01-23T08:00:58;3.70;99.90
52275;DHT22;38228;50.940;4.024;2023-01-23T08:03:24;3.70;99.90
52275;DHT22;38228;50.940;4.024;2023-01-23T08:05:54;3.70;99.90
52275;DHT22;38228;50.940;4.024;2023-01-23T08:08:19;3.60;99.90
52275;DHT22;38228;50.940;4.024;2023-01-23T08:10:45;3.50;99.90
52275;DHT22;38228;50.940;4.024;2023-01-23T08:13:10;3.50;99.90
52275;DHT22;38228;50.940;4.024;2023-01-23T08:15:36;3.60;99.90
52275;DHT22;38228;50.940;4.024;2023-01-23T08:18:03;3.60;99.90
52275;DHT22;38228;50.940;4.024;2023-01-23T08:20:28;3.60;99.90
52275;DHT22;38228;50.940;4.024;2023-01-23T08:22:54;3.50;99.90
52275;DHT22;38228;50.940;4.024;2023-01-23T08:25:20;3.60;99.90
52275;DHT22;38228;50.940;4.024;2023-01-23T08:27:46;3.60;99.90
52275;DHT22;38228;50.940;4.024;2023-01-23T08:30:11;3.70;99.90
52275;DHT22;38228;50.940;4.024;2023-01-23T08:32:37;3.70;99.90
52275;DHT22;38228;50.940;4.024;2023-01-23T08:35:03;3.70;99.90
52275;DHT22;38228;50.940;4.024;2023-01-23T08:37:29;3.80;99.90
52275;DHT22;38228;50.940;4.024;2023-01-23T08:39:54;3.70;99.90
52275;DHT22;38228;50.940;4.024;2023-01-23T08:42:20;3.70;99.90
52275;DHT22;38228;50.940;4.024;2023-01-23T08:44:46;3.60;99.90
52275;DHT22;38228;50.940;4.024;2023-01-23T08:47:11;3.60;99.90
52275;DHT22;38228;50.940;4.024;2023-01-23T08:49:37;3.70;99.90
52275;DHT22;38228;50.940;4.024;2023-01-23T08:52:02;3.70;99.90
52275;DHT22;38228;50.940;4.024;2023-01-23T08:54:30;3.70;99.90
52275;DHT22;38228;50.940;4.024;2023-01-23T08:56:55;3.90;99.90
52275;DHT22;38228;50.940;4.024;2023-01-23T08:59:21;4.00;99.90
52275;DHT22;38228;50.940;4.024;2023-01-23T09:01:46;4.00;99.90
52275;DHT22;38228;50.940;4.024;2023-01-23T09:04:12;3.90;99.90
52275;DHT22;38228;50.940;4.024;2023-01-23T09:06:38;3.70;99.90
52275;DHT22;38228;50.940;4.024;2023-01-23T09:09:04;3.80;99.90
52275;DHT22;38228;50.940;4.024;2023-01-23T09:11:29;3.80;99.90
52275;DHT22;38228;50.940;4.024;2023-01-23T09:13:55;3.90;99.90
52275;DHT22;38228;50.940;4.024;2023-01-23T09:16:21;4.00;99.90
52275;DHT22;38228;50.940;4.024;2023-01-23T09:18:47;4.00;99.90
52275;DHT22;38228;50.940;4.024;2023-01-23T09:21:13;4.00;99.90
52275;DHT22;38228;50.940;4.024;2023-01-23T09:23:39;4.20;99.90
52275;DHT22;38228;50.940;4.024;2023-01-23T09:26:05;4.40;99.90
52275;DHT22;38228;50.940;4.024;2023-01-23T09:28:31;4.30;99.90
52275;DHT22;38228;50.940;4.024;2023-01-23T09:31:00;4.10;99.90
52275;DHT22;38228;50.940;4.024;2023-01-23T09:33:26;3.90;99.90
52275;DHT22;38228;50.940;4.024;2023-01-23T09:35:52;3.90;99.90
52275;DHT22;38228;50.940;4.024;2023-01-23T09:38:18;3.90;99.90
52275;DHT22;38228;50.940;4.024;2023-01-23T09:40:47;3.90;99.90
52275;DHT22;38228;50.940;4.024;2023-01-23T09:43:15;4.00;99.90
52275;DHT22;38228;50.940;4.024;2023-01-23T09:45:45;4.00;99.90
52275;DHT22;38228;50.940;4.024;2023-01-23T09:48:17;3.90;99.90
52275;DHT22;38228;50.940;4.024;2023-01-23T09:50:51;3.90;99.90
52275;DHT22;38228;50.940;4.024;2023-01-23T09:53:20;3.90;99.90
52275;DHT22;38228;50.940;4.024;2023-01-23T09:58:33;4.00;99.90
52275;DHT22;38228;50.940;4.024;2023-01-23T10:01:00;4.00;99.90
52275;DHT22;38228;50.940;4.024;2023-01-23T10:03:27;4.00;99.90
52275;DHT22;38228;50.940;4.024;2023-01-23T10:10:52;4.30;99.90
52275;DHT22;38228;50.940;4.024;2023-01-23T10:16:05;4.00;99.90
52275;DHT22;38228;50.940;4.024;2023-01-23T10:18:43;4.00;99.90
52275;DHT22;38228;50.940;4.024;2023-01-23T10:26:10;3.90;99.90
52275;DHT22;38228;50.940;4.024;2023-01-23T10:28:39;3.90;99.90
52275;DHT22;38228;50.940;4.024;2023-01-23T10:36:35;4.00;99.90
52275;DHT22;38228;50.940;4.024;2023-01-23T10:39:03;4.10;99.90
52275;DHT22;38228;50.940;4.024;2023-01-23T10:41:30;4.20;99.90
52275;DHT22;38228;50.940;4.024;2023-01-23T10:43:56;4.20;99.90
52275;DHT22;38228;50.940;4.024;2023-01-23T10:46:27;4.30;99.90
52275;DHT22;38228;50.940;4.024;2023-01-23T10:48:53;4.30;99.90
52275;DHT22;38228;50.940;4.024;2023-01-23T10:51:43;4.50;99.90
52275;DHT22;38228;50.940;4.024;2023-01-23T10:59:22;4.70;99.90
52275;DHT22;38228;50.940;4.024;2023-01-23T11:01:56;4.70;99.90
52275;DHT22;38228;50.940;4.024;2023-01-23T11:04:25;4.70;99.90
52275;DHT22;38228;50.940;4.024;2023-01-23T11:09:47;5.00;99.90
52275;DHT22;38228;50.940;4.024;2023-01-23T11:12:14;5.10;99.90
52275;DHT22;38228;50.940;4.024;2023-01-23T11:14:40;5.00;99.90
52275;DHT22;38228;50.940;4.024;2023-01-23T11:19:41;5.10;99.90
52275;DHT22;38228;50.940;4.024;2023-01-23T11:22:27;5.00;99.90
52275;DHT22;38228;50.940;4.024;2023-01-23T11:24:54;4.80;99.90
52275;DHT22;38228;50.940;4.024;2023-01-23T11:27:21;4.80;99.90
52275;DHT22;38228;50.940;4.024;2023-01-23T11:32:34;4.80;99.90
52275;DHT22;38228;50.940;4.024;2023-01-23T11:35:05;5.10;99.90
52275;DHT22;38228;50.940;4.024;2023-01-23T11:37:35;5.10;99.90
52275;DHT22;38228;50.940;4.024;2023-01-23T11:40:10;5.20;99.90
52275;DHT22;38228;50.940;4.024;2023-01-23T11:42:37;5.40;99.90
52275;DHT22;38228;50.940;4.024;2023-01-23T11:45:05;5.50;99.90
52275;DHT22;38228;50.940;4.024;2023-01-23T11:50:07;5.50;99.90
52275;DHT22;38228;50.940;4.024;2023-01-23T11:58:02;5.20;99.90
52275;DHT22;38228;50.940;4.024;2023-01-23T12:10:48;5.70;99.90
52275;DHT22;38228;50.940;4.024;2023-01-23T12:16:07;5.60;99.90
52275;DHT22;38228;50.940;4.024;2023-01-23T12:21:04;5.30;99.90
52275;DHT22;38228;50.940;4.024;2023-01-23T12:28:45;4.90;99.90
52275;DHT22;38228;50.940;4.024;2023-01-23T12:41:50;5.00;99.90
52275;DHT22;38228;50.940;4.024;2023-01-23T12:46:54;5.00;99.90
52275;DHT22;38228;50.940;4.024;2023-01-23T12:57:22;5.00;99.90
52275;DHT22;38228;50.940;4.024;2023-01-23T13:13:50;5.10;99.90
52275;DHT22;38228;50.940;4.024;2023-01-23T13:16:28;5.00;99.90
52275;DHT22;38228;50.940;4.024;2023-01-23T13:18:59;4.90;99.90
52275;DHT22;38228;50.940;4.024;2023-01-23T13:24:44;5.00;99.90
52275;DHT22;38228;50.940;4.024;2023-01-23T13:27:38;5.00;99.90
52275;DHT22;38228;50.940;4.024;2023-01-23T13:32:57;4.80;99.90
52275;DHT22;38228;50.940;4.024;2023-01-23T13:48:57;4.90;99.90
52275;DHT22;38228;50.940;4.024;2023-01-23T13:51:44;4.80;99.90
52275;DHT22;38228;50.940;4.024;2023-01-23T13:54:16;4.70;99.90
52275;DHT22;38228;50.940;4.024;2023-01-23T13:57:02;4.70;99.90
52275;DHT22;38228;50.940;4.024;2023-01-23T13:59:32;4.60;99.90
52275;DHT22;38228;50.940;4.024;2023-01-23T14:05:07;4.60;99.90
52275;DHT22;38228;50.940;4.024;2023-01-23T14:07:38;4.60;99.90
52275;DHT22;38228;50.940;4.024;2023-01-23T14:10:28;4.70;99.90
52275;DHT22;38228;50.940;4.024;2023-01-23T14:15:49;4.70;99.90
52275;DHT22;38228;50.940;4.024;2023-01-23T14:18:36;4.60;99.90
52275;DHT22;38228;50.940;4.024;2023-01-23T14:24:17;4.80;99.90
52275;DHT22;38228;50.940;4.024;2023-01-23T14:26:47;4.90;99.90
52275;DHT22;38228;50.940;4.024;2023-01-23T14:29:20;4.80;99.90
52275;DHT22;38228;50.940;4.024;2023-01-23T14:31:46;4.80;99.90
52275;DHT22;38228;50.940;4.024;2023-01-23T14:34:15;4.80;99.90
52275;DHT22;38228;50.940;4.024;2023-01-23T14:36:42;4.90;99.90
52275;DHT22;38228;50.940;4.024;2023-01-23T14:39:25;4.90;99.90
52275;DHT22;38228;50.940;4.024;2023-01-23T14:41:52;5.00;99.90
52275;DHT22;38228;50.940;4.024;2023-01-23T14:44:24;5.00;99.90
52275;DHT22;38228;50.940;4.024;2023-01-23T14:46:52;4.90;99.90
52275;DHT22;38228;50.940;4.024;2023-01-23T14:49:28;4.70;99.90
52275;DHT22;38228;50.940;4.024;2023-01-23T14:51:54;4.70;99.90
52275;DHT22;38228;50.940;4.024;2023-01-23T14:54:20;4.70;99.90
52275;DHT22;38228;50.940;4.024;2023-01-23T14:56:48;4.70;99.90
52275;DHT22;38228;50.940;4.024;2023-01-23T14:59:18;4.50;99.90
52275;DHT22;38228;50.940;4.024;2023-01-23T15:01:55;4.50;99.90
52275;DHT22;38228;50.940;4.024;2023-01-23T15:04:23;4.40;99.90
52275;DHT22;38228;50.940;4.024;2023-01-23T15:06:52;4.40;99.90
52275;DHT22;38228;50.940;4.024;2023-01-23T15:09:20;4.40;99.90
52275;DHT22;38228;50.940;4.024;2023-01-23T15:11:50;4.50;99.90
52275;DHT22;38228;50.940;4.024;2023-01-23T15:14:21;4.60;99.90
52275;DHT22;38228;50.940;4.024;2023-01-23T15:17:02;4.50;99.90
52275;DHT22;38228;50.940;4.024;2023-01-23T15:19:34;4.50;99.90
52275;DHT22;38228;50.940;4.024;2023-01-23T15:24:31;4.50;99.90
52275;DHT22;38228;50.940;4.024;2023-01-23T15:27:01;4.50;99.90
52275;DHT22;38228;50.940;4.024;2023-01-23T15:29:28;4.50;99.90
52275;DHT22;38228;50.940;4.024;2023-01-23T15:31:53;4.60;99.90
52275;DHT22;38228;50.940;4.024;2023-01-23T15:34:24;4.40;99.90
52275;DHT22;38228;50.940;4.024;2023-01-23T15:39:23;4.50;99.90
52275;DHT22;38228;50.940;4.024;2023-01-23T15:44:21;4.60;99.90
52275;DHT22;38228;50.940;4.024;2023-01-23T15:46:47;4.70;99.90
52275;DHT22;38228;50.940;4.024;2023-01-23T15:49:12;4.70;99.90
52275;DHT22;38228;50.940;4.024;2023-01-23T15:51:38;4.60;99.90
52275;DHT22;38228;50.940;4.024;2023-01-23T15:54:04;4.60;99.90
52275;DHT22;38228;50.940;4.024;2023-01-23T15:56:31;4.50;99.90
52275;DHT22;38228;50.940;4.024;2023-01-23T15:58:57;4.50;99.90
52275;DHT22;38228;50.940;4.024;2023-01-23T16:01:26;4.60;99.90
52275;DHT22;38228;50.940;4.024;2023-01-23T16:03:52;4.50;99.90
52275;DHT22;38228;50.940;4.024;2023-01-23T16:06:18;4.50;99.90
52275;DHT22;38228;50.940;4.024;2023-01-23T16:08:54;4.50;99.90
52275;DHT22;38228;50.940;4.024;2023-01-23T16:11:19;4.50;99.90
52275;DHT22;38228;50.940;4.024;2023-01-23T16:13:45;4.70;99.90
52275;DHT22;38228;50.940;4.024;2023-01-23T16:16:15;4.80;99.90
52275;DHT22;38228;50.940;4.024;2023-01-23T16:18:40;4.80;99.90
52275;DHT22;38228;50.940;4.024;2023-01-23T16:21:09;4.70;99.90
52275;DHT22;38228;50.940;4.024;2023-01-23T16:23:35;4.60;99.90
52275;DHT22;38228;50.940;4.024;2023-01-23T16:26:03;4.50;99.90
52275;DHT22;38228;50.940;4.024;2023-01-23T16:28:29;4.40;99.90
52275;DHT22;38228;50.940;4.024;2023-01-23T16:30:56;4.50;99.90
52275;DHT22;38228;50.940;4.024;2023-01-23T16:33:22;4.60;99.90
52275;DHT22;38228;50.940;4.024;2023-01-23T16:35:48;4.60;99.90
52275;DHT22;38228;50.940;4.024;2023-01-23T16:38:19;4.40;99.90
52275;DHT22;38228;50.940;4.024;2023-01-23T16:40:45;4.50;99.90
52275;DHT22;38228;50.940;4.024;2023-01-23T16:43:10;4.50;99.90
52275;DHT22;38228;50.940;4.024;2023-01-23T16:45:36;4.40;99.90
52275;DHT22;38228;50.940;4.024;2023-01-23T16:48:02;4.30;99.90
52275;DHT22;38228;50.940;4.024;2023-01-23T16:50:38;4.30;99.90
52275;DHT22;38228;50.940;4.024;2023-01-23T16:53:22;4.30;99.90
52275;DHT22;38228;50.940;4.024;2023-01-23T16:55:49;4.30;99.90
52275;DHT22;38228;50.940;4.024;2023-01-23T16:58:18;4.20;99.90
52275;DHT22;38228;50.940;4.024;2023-01-23T17:00:46;4.20;99.90
52275;DHT22;38228;50.940;4.024;2023-01-23T17:03:22;4.20;99.90
52275;DHT22;38228;50.940;4.024;2023-01-23T17:05:52;4.30;99.90
52275;DHT22;38228;50.940;4.024;2023-01-23T17:08:18;4.30;99.90
52275;DHT22;38228;50.940;4.024;2023-01-23T17:10:54;4.20;99.90
52275;DHT22;38228;50.940;4.024;2023-01-23T17:13:23;4.20;99.90
52275;DHT22;38228;50.940;4.024;2023-01-23T17:15:53;4.10;99.90
52275;DHT22;38228;50.940;4.024;2023-01-23T17:18:24;4.00;99.90
52275;DHT22;38228;50.940;4.024;2023-01-23T17:20:52;4.10;99.90
52275;DHT22;38228;50.940;4.024;2023-01-23T17:23:21;4.00;99.90
52275;DHT22;38228;50.940;4.024;2023-01-23T17:25:48;3.90;99.90
52275;DHT22;38228;50.940;4.024;2023-01-23T17:28:16;4.00;99.90
52275;DHT22;38228;50.940;4.024;2023-01-23T17:30:42;4.10;99.90
52275;DHT22;38228;50.940;4.024;2023-01-23T17:33:22;4.20;99.90
52275;DHT22;38228;50.940;4.024;2023-01-23T17:35:48;4.10;99.90
52275;DHT22;38228;50.940;4.024;2023-01-23T17:38:18;4.20;99.90
52275;DHT22;38228;50.940;4.024;2023-01-23T17:40:44;4.20;99.90
52275;DHT22;38228;50.940;4.024;2023-01-23T17:43:11;4.30;99.90
52275;DHT22;38228;50.940;4.024;2023-01-23T17:45:37;4.30;99.90
52275;DHT22;38228;50.940;4.024;2023-01-23T17:48:03;4.20;99.90
52275;DHT22;38228;50.940;4.024;2023-01-23T17:50:28;4.00;99.90
52275;DHT22;38228;50.940;4.024;2023-01-23T17:52:54;3.90;99.90
52275;DHT22;38228;50.940;4.024;2023-01-23T17:55:23;3.90;99.90
52275;DHT22;38228;50.940;4.024;2023-01-23T17:57:53;3.90;99.90
52275;DHT22;38228;50.940;4.024;2023-01-23T18:00:25;3.80;99.90
52275;DHT22;38228;50.940;4.024;2023-01-23T18:02:55;3.70;99.90
52275;DHT22;38228;50.940;4.024;2023-01-23T18:05:23;3.70;99.90
52275;DHT22;38228;50.940;4.024;2023-01-23T18:07:51;3.60;99.90
52275;DHT22;38228;50.940;4.024;2023-01-23T18:10:21;3.60;99.90
52275;DHT22;38228;50.940;4.024;2023-01-23T18:20:58;3.70;99.90